createdAt,value
2023-04-27T00:01:24.299Z,101210.78
2023-04-27T00:03:55.900Z,101210.22
2023-04-27T00:06:27.468Z,101206.84
2023-04-27T00:08:58.950Z,101197.78
2023-04-27T00:11:30.681Z,101196.16
2023-04-27T00:14:02.185Z,101209.03
2023-04-27T00:16:33.752Z,101200.63
2023-04-27T00:19:05.299Z,101200.91
2023-04-27T00:21:37.098Z,101197.78
2023-04-27T00:24:08.563Z,101198.97
2023-04-27T00:26:40.224Z,101196.34
2023-04-27T00:29:11.877Z,101201.63
2023-04-27T00:31:43.889Z,101203.00
2023-04-27T00:34:15.448Z,101197.97
2023-04-27T00:36:47.313Z,101198.63
2023-04-27T00:39:18.819Z,101199.16
2023-04-27T00:41:50.290Z,101201.19
2023-04-27T00:44:21.751Z,101201.38
2023-04-27T00:46:53.335Z,101202.75
2023-04-27T00:49:24.786Z,101202.75
2023-04-27T00:51:56.254Z,101213.44
2023-04-27T00:54:27.711Z,101210.44
2023-04-27T00:56:59.530Z,101213.25
2023-04-27T00:59:30.997Z,101211.16
2023-04-27T01:02:03.006Z,101213.16
2023-04-27T01:04:34.558Z,101219.28
2023-04-27T01:07:06.438Z,101215.81
2023-04-27T01:09:37.895Z,101221.41
2023-04-27T01:12:09.706Z,101219.56
2023-04-27T01:14:41.130Z,101216.09
2023-04-27T01:17:12.881Z,101226.31
2023-04-27T01:19:44.338Z,101220.66
2023-04-27T01:22:16.093Z,101224.88
2023-04-27T01:24:47.537Z,101218.84
2023-04-27T01:27:19.368Z,101223.78
2023-04-27T01:29:50.819Z,101226.69
2023-04-27T01:32:22.748Z,101229.97
2023-04-27T01:34:54.223Z,101225.50
2023-04-27T01:37:25.920Z,101225.78
2023-04-27T01:39:57.395Z,101235.75
2023-04-27T01:42:29.105Z,101047.22
2023-04-27T01:45:00.569Z,101248.41
2023-04-27T01:47:32.347Z,101249.41
2023-04-27T01:50:03.795Z,101245.13
2023-04-27T01:52:35.570Z,101249.97
2023-04-27T01:55:07.025Z,101255.44
2023-04-27T01:57:38.864Z,101253.78
2023-04-27T02:00:10.306Z,101251.59
2023-04-27T02:02:42.344Z,101252.78
2023-04-27T02:05:13.899Z,101261.28
2023-04-27T02:07:45.724Z,101258.81
2023-04-27T02:10:17.197Z,101258.00
2023-04-27T02:12:49.090Z,101265.94
2023-04-27T02:15:20.545Z,101257.88
2023-04-27T02:17:52.080Z,101266.47
2023-04-27T02:20:23.578Z,101266.38
2023-04-27T02:22:55.048Z,101271.03
2023-04-27T02:25:26.513Z,101272.13
2023-04-27T02:27:59.098Z,101272.13
2023-04-27T02:30:30.999Z,101282.75
2023-04-27T02:33:02.859Z,101280.13
2023-04-27T02:35:34.361Z,101281.94
2023-04-27T02:38:06.162Z,101276.47
2023-04-27T02:40:37.639Z,101277.47
2023-04-27T02:43:09.429Z,101275.31
2023-04-27T02:45:40.865Z,101280.13
2023-04-27T02:48:12.749Z,101279.47
2023-04-27T02:50:44.205Z,101276.38
2023-04-27T02:53:16.070Z,101280.84
2023-04-27T02:55:47.536Z,101277.81
2023-04-27T02:58:19.286Z,101280.25
2023-04-27T03:00:50.753Z,101287.31
2023-04-27T03:03:22.783Z,101284.72
2023-04-27T03:05:54.447Z,101289.19
2023-04-27T03:08:26.223Z,101284.84
2023-04-27T03:10:57.696Z,101288.84
2023-04-27T03:13:29.484Z,101293.78
2023-04-27T03:16:01.000Z,101287.91
2023-04-27T03:18:32.876Z,101292.84
2023-04-27T03:21:04.338Z,101293.31
2023-04-27T03:23:36.383Z,101287.84
2023-04-27T03:26:07.870Z,101293.19
2023-04-27T03:28:39.716Z,101298.97
2023-04-27T03:31:11.242Z,101296.50
2023-04-27T03:33:43.064Z,101298.31
2023-04-27T03:36:14.503Z,101301.78
2023-04-27T03:38:46.003Z,101296.50
2023-04-27T03:41:17.508Z,101307.72
2023-04-27T03:43:49.295Z,101303.72
2023-04-27T03:46:20.804Z,101307.91
2023-04-27T03:48:52.285Z,101320.63
2023-04-27T03:51:23.748Z,101314.38
2023-04-27T03:53:55.335Z,101314.84
2023-04-27T03:56:26.797Z,101316.22
2023-04-27T03:58:58.614Z,101326.25
2023-04-27T04:01:30.104Z,101327.38
2023-04-27T04:04:02.048Z,101330.38
2023-04-27T04:06:33.594Z,101326.19
2023-04-27T04:09:05.447Z,101329.56
2023-04-27T04:11:36.918Z,101335.31
2023-04-27T04:14:08.440Z,101331.50
2023-04-27T04:16:39.874Z,101337.25
2023-04-27T04:19:11.623Z,101340.72
2023-04-27T04:21:43.210Z,101349.31
2023-04-27T04:24:14.900Z,101348.56
2023-04-27T04:26:46.369Z,101349.84
2023-04-27T04:29:17.990Z,101348.38
2023-04-27T04:31:49.482Z,101347.03
2023-04-27T04:34:21.247Z,101345.91
2023-04-27T04:36:52.697Z,101351.69
2023-04-27T04:39:24.500Z,101350.63
2023-04-27T04:41:55.975Z,101360.72
2023-04-27T04:44:27.742Z,101361.44
2023-04-27T04:46:59.287Z,101365.47
2023-04-27T04:49:31.233Z,101364.41
2023-04-27T04:52:02.719Z,101359.75
2023-04-27T04:54:34.205Z,101368.06
2023-04-27T04:57:05.658Z,101367.75
2023-04-27T04:59:37.415Z,101366.16
2023-04-27T05:02:08.886Z,101373.19
2023-04-27T05:04:40.753Z,101365.91
2023-04-27T05:07:14.710Z,101370.56
2023-04-27T05:09:47.157Z,101369.25
2023-04-27T05:12:18.691Z,101372.81
2023-04-27T05:14:50.198Z,101375.47
2023-04-27T05:17:21.753Z,101374.81
2023-04-27T05:19:53.342Z,101375.81
2023-04-27T05:22:24.828Z,101378.78
2023-04-27T05:24:56.301Z,101365.22
2023-04-27T05:27:27.737Z,101373.69
2023-04-27T05:29:59.664Z,101368.56
2023-04-27T05:32:31.185Z,101369.28
2023-04-27T05:35:02.730Z,101371.47
2023-04-27T05:37:34.261Z,101371.88
2023-04-27T05:40:05.903Z,101371.88
2023-04-27T05:42:37.530Z,101372.16
2023-04-27T05:45:09.364Z,101378.19
2023-04-27T05:47:40.869Z,101370.28
2023-04-27T05:50:12.715Z,101369.31
2023-04-27T05:52:44.242Z,101375.31
2023-04-27T05:55:15.960Z,101375.63
2023-04-27T05:57:51.684Z,101383.84
2023-04-27T06:00:29.178Z,101377.91
2023-04-27T06:03:00.825Z,101212.34
2023-04-27T06:05:32.804Z,101387.22
2023-04-27T06:08:04.278Z,101400.41
2023-04-27T06:10:36.101Z,101393.38
2023-04-27T06:13:07.590Z,101396.28
2023-04-27T06:15:39.392Z,101402.59
2023-04-27T06:18:11.020Z,101399.56
2023-04-27T06:20:43.096Z,101394.41
2023-04-27T06:23:14.528Z,101401.50
2023-04-27T06:25:46.337Z,101407.31
2023-04-27T06:28:17.838Z,101402.03
2023-04-27T06:30:49.285Z,101401.00
2023-04-27T06:33:20.751Z,101400.53
2023-04-27T06:35:52.246Z,101404.94
2023-04-27T06:38:23.735Z,101402.88
2023-04-27T06:40:55.234Z,101408.78
2023-04-27T06:43:26.972Z,101403.16
2023-04-27T06:45:58.525Z,101406.72
2023-04-27T06:48:30.142Z,101407.13
2023-04-27T06:51:01.683Z,101408.84
2023-04-27T06:53:33.182Z,101411.50
2023-04-27T06:56:04.820Z,101413.81
2023-04-27T06:58:36.268Z,101417.19
2023-04-27T07:01:07.997Z,101418.66
2023-04-27T07:03:39.620Z,101414.00
2023-04-27T07:06:11.217Z,101418.75
2023-04-27T07:08:43.095Z,101415.91
2023-04-27T07:11:14.596Z,101419.78
2023-04-27T07:13:46.507Z,101421.47
2023-04-27T07:16:18.021Z,101417.91
2023-04-27T07:18:49.537Z,101426.69
2023-04-27T07:21:21.014Z,101424.91
2023-04-27T07:23:54.111Z,101420.19
2023-04-27T07:26:26.557Z,101424.91
2023-04-27T07:28:58.399Z,101429.25
2023-04-27T07:31:29.937Z,101426.69
2023-04-27T07:34:01.628Z,101413.22
2023-04-27T07:36:33.086Z,101419.66
2023-04-27T07:39:04.888Z,101420.44
2023-04-27T07:41:36.374Z,101420.66
2023-04-27T07:44:08.134Z,101428.97
2023-04-27T07:46:39.581Z,101419.59
2023-04-27T07:49:11.624Z,101425.50
2023-04-27T07:51:43.331Z,101434.38
2023-04-27T07:54:15.055Z,101432.94
2023-04-27T07:56:46.551Z,101430.38
2023-04-27T07:59:18.602Z,101433.50
2023-04-27T08:01:50.135Z,101437.06
2023-04-27T08:04:22.466Z,101427.88
2023-04-27T08:06:54.854Z,101446.06
2023-04-27T08:09:27.328Z,101441.56
2023-04-27T08:11:58.780Z,101442.25
2023-04-27T08:14:30.587Z,101445.31
2023-04-27T08:17:02.120Z,101447.28
2023-04-27T08:19:34.094Z,101443.53
2023-04-27T08:22:05.526Z,101449.91
2023-04-27T08:24:37.307Z,101457.75
2023-04-27T08:27:08.779Z,101450.97
2023-04-27T08:29:40.434Z,101450.38
2023-04-27T08:32:11.902Z,101445.06
2023-04-27T08:34:43.761Z,101445.81
2023-04-27T08:37:15.227Z,101440.78
2023-04-27T08:39:47.215Z,101450.59
2023-04-27T08:42:18.684Z,101448.13
2023-04-27T08:44:50.170Z,101450.38
2023-04-27T08:47:28.321Z,101448.19
2023-04-27T08:50:10.734Z,101451.91
2023-04-27T08:52:42.572Z,101451.56
2023-04-27T08:55:16.499Z,101449.81
2023-04-27T08:57:48.507Z,101457.56
2023-04-27T09:00:19.972Z,101457.97
2023-04-27T09:02:51.638Z,101446.34
2023-04-27T09:05:23.468Z,101444.03
2023-04-27T09:07:55.000Z,101450.97
2023-04-27T09:10:26.438Z,101446.06
2023-04-27T09:12:58.243Z,101446.75
2023-04-27T09:15:29.696Z,101456.09
2023-04-27T09:18:01.395Z,101440.63
2023-04-27T09:20:32.883Z,101447.59
2023-04-27T09:23:04.763Z,101445.00
2023-04-27T09:25:36.213Z,101445.44
2023-04-27T09:28:07.908Z,101444.38
2023-04-27T09:30:39.368Z,101429.16
2023-04-27T09:33:11.105Z,101436.00
2023-04-27T09:35:42.574Z,101428.88
2023-04-27T09:38:15.372Z,101420.25
2023-04-27T09:40:48.086Z,101421.72
2023-04-27T09:43:19.765Z,101429.31
2023-04-27T09:45:51.301Z,101425.97
2023-04-27T09:48:23.169Z,101438.84
2023-04-27T09:50:54.670Z,101434.75
2023-04-27T09:53:26.595Z,101431.72
2023-04-27T09:55:58.099Z,101422.06
2023-04-27T09:58:29.643Z,101429.66
2023-04-27T10:01:01.220Z,101420.81
2023-04-27T10:03:33.285Z,101423.81
2023-04-27T10:06:04.896Z,101422.63
2023-04-27T10:08:36.551Z,101419.50
2023-04-27T10:11:08.060Z,101425.44
2023-04-27T10:13:39.582Z,101425.03
2023-04-27T10:16:11.100Z,101417.75
2023-04-27T10:18:42.688Z,101424.94
2023-04-27T10:21:14.182Z,101418.94
2023-04-27T10:23:45.681Z,101419.94
2023-04-27T10:26:17.166Z,101418.75
2023-04-27T10:28:48.967Z,101424.06
2023-04-27T10:31:20.534Z,101424.50
2023-04-27T10:33:52.098Z,101420.41
2023-04-27T10:36:23.604Z,101413.44
2023-04-27T10:38:55.121Z,101418.00
2023-04-27T10:41:26.966Z,101416.97
2023-04-27T10:43:58.524Z,101418.97
2023-04-27T10:46:30.061Z,101415.47
2023-04-27T10:49:01.601Z,101402.63
2023-04-27T10:51:33.661Z,101419.28
2023-04-27T10:54:05.150Z,101404.25
2023-04-27T10:56:37.040Z,101407.72
2023-04-27T10:59:08.533Z,101405.53
2023-04-27T11:01:40.556Z,101412.63
2023-04-27T11:04:12.182Z,101397.44
2023-04-27T11:06:43.852Z,101408.78
2023-04-27T11:09:16.365Z,101405.34
2023-04-27T11:11:48.186Z,101397.09
2023-04-27T11:14:19.718Z,101407.19
2023-04-27T11:16:51.227Z,101413.09
2023-04-27T11:19:22.718Z,101413.16
2023-04-27T11:21:54.203Z,101410.84
2023-04-27T11:24:25.690Z,101403.31
2023-04-27T11:26:57.200Z,101407.56
2023-04-27T11:29:28.732Z,101404.19
2023-04-27T11:32:00.424Z,101403.19
2023-04-27T11:34:31.945Z,101408.97
2023-04-27T11:37:17.425Z,101416.72
2023-04-27T11:39:50.112Z,101407.59
2023-04-27T11:42:21.992Z,101407.56
2023-04-27T11:44:53.480Z,101416.84
2023-04-27T11:47:25.433Z,101414.72
2023-04-27T11:49:57.016Z,101420.28
2023-04-27T11:52:28.687Z,101414.22
2023-04-27T11:55:00.193Z,101422.53
2023-04-27T11:57:32.089Z,101427.28
2023-04-27T12:00:03.616Z,101424.22
2023-04-27T12:02:35.541Z,101431.19
2023-04-27T12:05:07.322Z,101425.34
2023-04-27T12:07:39.420Z,101434.63
2023-04-27T12:10:10.928Z,101429.88
2023-04-27T12:12:42.875Z,101430.25
2023-04-27T12:15:14.513Z,101433.28
2023-04-27T12:17:46.680Z,101433.59
2023-04-27T12:20:18.207Z,101434.19
2023-04-27T12:22:50.164Z,101434.16
2023-04-27T12:25:21.675Z,101435.56
2023-04-27T12:27:53.167Z,101431.28
2023-04-27T12:30:24.657Z,101426.56
2023-04-27T12:32:56.257Z,101430.75
2023-04-27T12:35:27.788Z,101438.19
2023-04-27T12:37:59.628Z,101426.25
2023-04-27T12:40:31.141Z,101432.72
2023-04-27T12:43:02.646Z,101431.25
2023-04-27T12:45:34.161Z,101413.81
2023-04-27T12:48:06.092Z,101424.63
2023-04-27T12:50:37.630Z,101420.97
2023-04-27T12:53:09.519Z,101417.47
2023-04-27T12:55:41.186Z,101425.47
2023-04-27T12:58:12.792Z,101419.81
2023-04-27T13:00:44.332Z,101426.09
2023-04-27T13:03:16.502Z,101430.91
2023-04-27T13:05:48.107Z,101437.22
2023-04-27T13:08:19.974Z,101427.50
2023-04-27T13:10:51.504Z,101437.44
2023-04-27T13:13:23.324Z,101429.50
2023-04-27T13:15:54.829Z,101428.19
2023-04-27T13:18:26.547Z,101423.81
2023-04-27T13:20:58.013Z,101433.41
2023-04-27T13:23:29.821Z,101424.47
2023-04-27T13:26:01.329Z,101423.28
2023-04-27T13:28:33.215Z,101430.66
2023-04-27T13:31:05.221Z,101428.06
2023-04-27T13:33:36.779Z,101424.47
2023-04-27T13:36:08.618Z,101427.59
2023-04-27T13:38:40.172Z,101426.53
2023-04-27T13:41:12.004Z,101429.59
2023-04-27T13:43:43.532Z,101424.53
2023-04-27T13:46:15.411Z,101418.72
2023-04-27T13:48:47.065Z,101421.34
2023-04-27T13:51:18.900Z,101423.03
2023-04-27T13:53:50.413Z,101421.91
2023-04-27T13:56:21.978Z,101424.78
2023-04-27T13:58:53.522Z,101424.50
2023-04-27T14:01:25.410Z,101420.19
2023-04-27T14:03:57.149Z,101425.38
2023-04-27T14:06:28.746Z,101426.47
2023-04-27T14:09:00.309Z,101421.41
2023-04-27T14:11:39.410Z,101415.38
2023-04-27T14:14:16.786Z,101421.59
2023-04-27T14:16:48.368Z,101422.94
2023-04-27T14:19:20.003Z,101415.34
2023-04-27T14:21:51.520Z,101422.00
2023-04-27T14:24:23.001Z,101415.88
2023-04-27T14:26:54.532Z,101420.59
2023-04-27T14:29:26.035Z,101418.47
2023-04-27T14:31:57.617Z,101420.47
2023-04-27T14:34:29.109Z,101418.91
2023-04-27T14:37:00.872Z,101424.06
2023-04-27T14:39:32.420Z,101420.78
2023-04-27T14:42:04.319Z,101419.41
2023-04-27T14:44:35.819Z,101422.34
2023-04-27T14:47:07.796Z,101419.34
2023-04-27T14:49:39.498Z,101418.94
2023-04-27T14:52:11.344Z,101413.00
2023-04-27T14:54:42.872Z,101420.69
2023-04-27T14:57:14.739Z,101418.81
2023-04-27T14:59:46.256Z,101406.13
2023-04-27T15:02:18.152Z,101412.91
2023-04-27T15:04:49.744Z,101419.34
2023-04-27T15:07:21.647Z,101419.94
2023-04-27T15:09:53.162Z,101408.59
2023-04-27T15:12:25.133Z,101412.53
2023-04-27T15:14:56.651Z,101406.13
2023-04-27T15:17:28.517Z,101412.91
2023-04-27T15:20:00.053Z,101412.06
2023-04-27T15:22:32.032Z,101404.63
2023-04-27T15:25:03.618Z,101401.53
2023-04-27T15:27:35.138Z,101395.59
2023-04-27T15:30:06.634Z,101401.63
2023-04-27T15:32:38.429Z,101398.06
2023-04-27T15:35:09.938Z,101405.59
2023-04-27T15:37:41.564Z,101404.09
2023-04-27T15:40:13.089Z,101403.13
2023-04-27T15:42:44.847Z,101408.72
2023-04-27T15:45:16.396Z,101402.84
2023-04-27T15:47:48.093Z,101395.81
2023-04-27T15:50:20.234Z,101399.38
2023-04-27T15:52:51.774Z,101394.97
2023-04-27T15:55:23.306Z,101392.97
2023-04-27T15:57:54.853Z,101387.47
2023-04-27T16:00:26.368Z,101383.38
2023-04-27T16:02:58.410Z,101377.59
2023-04-27T16:05:30.034Z,101383.47
2023-04-27T16:08:02.062Z,101382.31
2023-04-27T16:10:33.563Z,101382.19
2023-04-27T16:13:05.099Z,101381.53
2023-04-27T16:15:36.617Z,101373.66
2023-04-27T16:18:08.589Z,101367.81
2023-04-27T16:20:40.242Z,101373.13
2023-04-27T16:23:12.235Z,101370.34
2023-04-27T16:25:43.848Z,101371.41
2023-04-27T16:28:15.379Z,101372.22
2023-04-27T16:30:46.873Z,101365.84
2023-04-27T16:33:18.755Z,101365.25
2023-04-27T16:35:50.355Z,101356.22
2023-04-27T16:38:22.145Z,101358.41
2023-04-27T16:40:53.642Z,101370.06
2023-04-27T16:43:25.461Z,101363.91
2023-04-27T16:45:57.051Z,101368.84
2023-04-27T16:48:28.891Z,101361.13
2023-04-27T16:51:00.439Z,101366.66
2023-04-27T16:53:32.342Z,101363.75
2023-04-27T16:56:03.849Z,101363.78
2023-04-27T16:58:35.680Z,101365.22
2023-04-27T17:01:07.230Z,101360.28
2023-04-27T17:03:39.166Z,101362.75
2023-04-27T17:06:10.731Z,101360.31
2023-04-27T17:08:42.486Z,101371.69
2023-04-27T17:11:13.981Z,101374.56
2023-04-27T17:13:46.130Z,101376.41
2023-04-27T17:16:17.691Z,101365.75
2023-04-27T17:18:49.466Z,101369.44
2023-04-27T17:21:21.000Z,101370.69
2023-04-27T17:23:52.559Z,101377.66
2023-04-27T17:26:24.090Z,101370.47
2023-04-27T17:28:55.594Z,101372.31
2023-04-27T17:31:27.472Z,101371.16
2023-04-27T17:33:58.965Z,101369.50
2023-04-27T17:36:30.483Z,101373.59
2023-04-27T17:39:02.003Z,101372.00
2023-04-27T17:41:35.467Z,101374.84
2023-04-27T17:44:08.379Z,101370.16
2023-04-27T17:46:40.216Z,101369.75
2023-04-27T17:49:11.985Z,101373.03
2023-04-27T17:51:44.258Z,101366.44
2023-04-27T17:54:15.826Z,101371.56
2023-04-27T17:56:47.372Z,101379.78
2023-04-27T17:59:19.104Z,101378.28
2023-04-27T18:01:50.761Z,101380.53
2023-04-27T18:04:22.778Z,101385.44
2023-04-27T18:06:54.459Z,101375.56
2023-04-27T18:09:26.006Z,101382.94
2023-04-27T18:11:57.891Z,101385.38
2023-04-27T18:14:29.410Z,101388.66
2023-04-27T18:17:01.096Z,101383.69
2023-04-27T18:19:32.823Z,101383.66
2023-04-27T18:22:04.662Z,101389.78
2023-04-27T18:24:36.161Z,101393.66
2023-04-27T18:27:08.065Z,101387.63
2023-04-27T18:29:39.630Z,101391.50
2023-04-27T18:32:11.819Z,101401.28
2023-04-27T18:34:43.404Z,101401.03
2023-04-27T18:37:15.096Z,101406.13
2023-04-27T18:39:46.576Z,101407.13
2023-04-27T18:42:18.404Z,101415.03
2023-04-27T18:44:50.000Z,101423.97
2023-04-27T18:47:22.092Z,101423.31
2023-04-27T18:49:53.639Z,101425.28
2023-04-27T18:52:25.163Z,101418.28
2023-04-27T18:54:56.678Z,101423.69
2023-04-27T18:57:28.577Z,101425.91
2023-04-27T19:00:00.106Z,101425.88
2023-04-27T19:02:32.189Z,101418.84
2023-04-27T19:05:12.414Z,101427.69
2023-04-27T19:07:45.538Z,101432.25
2023-04-27T19:10:17.051Z,101424.72
2023-04-27T19:12:49.403Z,101426.31
2023-04-27T19:15:20.902Z,101429.31
2023-04-27T19:17:58.569Z,101431.81
2023-04-27T19:20:38.349Z,101429.50
2023-04-27T19:23:10.423Z,101433.63
2023-04-27T19:25:41.921Z,101429.53
2023-04-27T19:28:13.507Z,101429.53
2023-04-27T19:30:45.060Z,101428.88
2023-04-27T19:33:18.543Z,101418.00
2023-04-27T19:35:51.205Z,101425.34
2023-04-27T19:38:22.691Z,101429.19
2023-04-27T19:40:54.220Z,101428.72
2023-04-27T19:43:26.072Z,101423.97
2023-04-27T19:45:57.609Z,101430.00
2023-04-27T19:48:29.348Z,101431.38
2023-04-27T19:51:00.889Z,101426.63
2023-04-27T19:53:32.739Z,101438.44
2023-04-27T19:56:04.215Z,101434.69
2023-04-27T19:58:36.062Z,101428.09
2023-04-27T20:01:07.566Z,101428.09
2023-04-27T20:03:39.619Z,101427.25
2023-04-27T20:06:11.378Z,101425.97
2023-04-27T20:08:43.660Z,101420.22
2023-04-27T20:11:15.150Z,101423.06
2023-04-27T20:13:46.744Z,101414.06
2023-04-27T20:16:18.306Z,101419.00
2023-04-27T20:18:49.815Z,101420.06
2023-04-27T20:21:21.309Z,101407.41
2023-04-27T20:23:52.803Z,101414.78
2023-04-27T20:26:24.277Z,101416.69
2023-04-27T20:28:55.774Z,101417.59
2023-04-27T20:31:27.316Z,101411.50
2023-04-27T20:33:58.851Z,101417.78
2023-04-27T20:36:30.343Z,101410.50
2023-04-27T20:39:02.189Z,101414.28
2023-04-27T20:41:33.688Z,101423.19
2023-04-27T20:44:05.369Z,101415.50
2023-04-27T20:46:36.838Z,101405.56
2023-04-27T20:49:08.711Z,101409.91
2023-04-27T20:51:40.236Z,101415.13
2023-04-27T20:54:12.100Z,101410.13
2023-04-27T20:56:43.594Z,101406.66
2023-04-27T20:59:15.444Z,101403.50
2023-04-27T21:01:46.986Z,101408.00
2023-04-27T21:04:19.081Z,101408.31
2023-04-27T21:06:52.978Z,101400.53
2023-04-27T21:09:24.865Z,101403.25
2023-04-27T21:11:56.384Z,101397.19
2023-04-27T21:14:28.066Z,101396.72
2023-04-27T21:16:59.644Z,101394.91
2023-04-27T21:19:31.336Z,101392.97
2023-04-27T21:22:02.806Z,101394.66
2023-04-27T21:24:34.640Z,101394.53
2023-04-27T21:27:06.104Z,101393.56
2023-04-27T21:29:37.853Z,101390.16
2023-04-27T21:32:09.312Z,101391.19
2023-04-27T21:34:41.069Z,101389.91
2023-04-27T21:37:12.537Z,101387.56
2023-04-27T21:39:44.389Z,101387.09
2023-04-27T21:42:16.172Z,101388.28
2023-04-27T21:44:47.688Z,101383.34
2023-04-27T21:47:19.555Z,101383.81
2023-04-27T21:49:52.486Z,101384.97
2023-04-27T21:52:24.540Z,101388.31
2023-04-27T21:54:55.992Z,101386.72
2023-04-27T21:57:27.840Z,101383.72
2023-04-27T21:59:59.292Z,101379.59
2023-04-27T22:02:31.196Z,101380.09
2023-04-27T22:05:02.939Z,101385.06
2023-04-27T22:07:35.160Z,101386.88
2023-04-27T22:10:06.611Z,101385.06
2023-04-27T22:12:38.244Z,101383.25
2023-04-27T22:15:09.670Z,101383.25
2023-04-27T22:17:41.380Z,101386.72
2023-04-27T22:20:12.854Z,101388.69
2023-04-27T22:22:44.708Z,101389.56
2023-04-27T22:25:16.165Z,101388.38
2023-04-27T22:27:47.623Z,101388.38
2023-04-27T22:30:19.074Z,101382.63
2023-04-27T22:32:50.590Z,101391.06
2023-04-27T22:35:27.092Z,101391.41
2023-04-27T22:37:59.382Z,101393.09
2023-04-27T22:40:30.812Z,101398.22
2023-04-27T22:43:02.283Z,101400.38
2023-04-27T22:45:33.762Z,101404.34
2023-04-27T22:48:05.837Z,101390.44
2023-04-27T22:50:37.344Z,101390.94
2023-04-27T22:53:09.062Z,101394.09
2023-04-27T22:55:40.526Z,101395.41
2023-04-27T22:58:11.982Z,101394.91
2023-04-27T23:00:43.461Z,101388.16
2023-04-27T23:03:15.435Z,101384.19
2023-04-27T23:05:46.985Z,101390.63
2023-04-27T23:08:18.656Z,101386.00
2023-04-27T23:10:50.110Z,101384.84
2023-04-27T23:13:21.867Z,101381.09
2023-04-27T23:15:53.299Z,101377.59
2023-04-27T23:18:24.758Z,101378.44
2023-04-27T23:20:56.205Z,101374.47
2023-04-27T23:23:27.956Z,101374.78
2023-04-27T23:25:59.419Z,101375.59
2023-04-27T23:28:31.225Z,101373.13
2023-04-27T23:31:02.709Z,101373.97
2023-04-27T23:36:30.484Z,101361.41
2023-04-27T23:39:02.245Z,101365.38
2023-04-27T23:41:33.948Z,101363.75
2023-04-27T23:44:05.397Z,101359.78
2023-04-27T23:46:37.262Z,101361.06
2023-04-27T23:49:08.741Z,101363.38
2023-04-27T23:51:40.653Z,101368.16
2023-04-27T23:54:12.120Z,101356.59
2023-04-27T23:56:43.947Z,101362.72
2023-04-27T23:59:15.432Z,101354.13
